Nagaoka, Japan
Current Conditions -  °F | °C
As of 9:00 PM on Thursday 18 Dec 2014 (Local Time) from RJSN Reporting Station
Snow Showers Snow Showers  
Wind Chill: 29°   Ceiling: 5000
Heat Index: 39°   Visibility: 6mi
Dew Point: 27°   Wind: 22mph
Humidity: 61%   Direction: 310°NW
Pressure: 30.21"   Gusts: NA
Location:  37.46°N, 138.85°E
Report Text: RJSN 181200Z 31019KT 9999 -SHSN FEW015 SCT030 BKN050 04/M03 Q1023
Loading
Personal Weather Stations






























Interactive Weather Map New forecast layout! Learn more

10-Day Weather Forecast

Advertisements
Track Severe Weather on mobile